<?xml version="1.0" encoding="UTF-8" standalone="no" ?>
<gpx xmlns="http://www.topografix.com/GPX/1/1" xmlns:xsi="http://www.w3.org/2001/XMLSchema-instance" xsi:schemaLocation="http://www.topografix.com/GPX/1/1 http://www.topografix.com/GPX/1/1/gpx.xsd" version="1.1" creator="VisuGPX - https://www.visugpx.com">
  <metadata>
    <name>Campagnes et bois aux alentours de Roisin et le long de la Grande Honnelle</name>
  </metadata>
  <wpt lat="50.35003" lon="3.69096">
    <ele>71</ele>
    <name><![CDATA[Place d'Angreau]]></name>
  </wpt>
  <wpt lat="50.34293" lon="3.70128">
    <ele>89.7</ele>
    <name><![CDATA[Jonction avec une route]]></name>
  </wpt>
  <wpt lat="50.33497" lon="3.70907">
    <ele>99.3</ele>
    <name><![CDATA[Ferme à Cochons]]></name>
  </wpt>
  <wpt lat="50.32774" lon="3.74228">
    <ele>110.6</ele>
    <name><![CDATA[Jonction avec une route]]></name>
  </wpt>
  <wpt lat="50.3266" lon="3.74738">
    <ele>103.2</ele>
    <name><![CDATA[Sentier des Carrières]]></name>
  </wpt>
  <wpt lat="50.33265" lon="3.74632">
    <ele>86.9</ele>
    <name><![CDATA[Pont de brique]]></name>
  </wpt>
  <wpt lat="50.33459" lon="3.73793">
    <ele>77.2</ele>
    <name><![CDATA[au baron]]></name>
  </wpt>
  <wpt lat="50.33609" lon="3.73786">
    <ele>72.1</ele>
    <name><![CDATA[Au Baron]]></name>
  </wpt>
  <wpt lat="50.33615" lon="3.73807">
    <ele>72.3</ele>
    <name><![CDATA[Au Baron]]></name>
  </wpt>
  <wpt lat="50.33813" lon="3.73117">
    <ele>73.5</ele>
    <name><![CDATA[Sentier en direction des ateliers communaux ]]></name>
  </wpt>
  <wpt lat="50.34013" lon="3.72639">
    <ele>67</ele>
    <name><![CDATA[Départ de l'ancienne voie ferroviaire]]></name>
  </wpt>
  <wpt lat="50.34525" lon="3.71386">
    <ele>81.2</ele>
    <name><![CDATA[Départ du sentier descendant à gauche]]></name>
  </wpt>
  <wpt lat="50.34504" lon="3.71141">
    <ele>64</ele>
    <name><![CDATA[Chalet du Garde]]></name>
  </wpt>
  <wpt lat="50.34575" lon="3.70898">
    <ele>67.4</ele>
    <name><![CDATA[Caillou qui Bique]]></name>
  </wpt>
  <wpt lat="50.34968" lon="3.70529">
    <ele>60.6</ele>
    <name><![CDATA[pont sur la Honnelle]]></name>
  </wpt>
  <wpt lat="50.34966" lon="3.70461">
    <ele>58.6</ele>
    <name><![CDATA[Pont]]></name>
  </wpt>
  <wpt lat="50.3495" lon="3.70442">
    <ele>58.8</ele>
    <name><![CDATA[Pont]]></name>
  </wpt>
  <wpt lat="50.34876" lon="3.69299">
    <ele>79.9</ele>
    <name><![CDATA[Rue du Quesnoy]]></name>
  </wpt>
  <wpt lat="50.35004" lon="3.69095">
    <ele>70.9</ele>
    <name><![CDATA[Place d'Angreau]]></name>
  </wpt>
  <trk>
    <name><![CDATA[Campagnes et bois aux alentours de Roisin et le long de la Grande Honnelle]]></name>
    <trkseg>
      <trkpt lat="50.35003" lon="3.69096">
        <ele>73</ele>
        <time>2017-04-09T08:13:36+02:00</time>
      </trkpt>
      <trkpt lat="50.34966" lon="3.69086">
        <ele>73</ele>
        <time>2020-11-08T11:14:23+01:00</time>
      </trkpt>
      <trkpt lat="50.34916" lon="3.69082">
        <ele>75</ele>
        <time>2020-11-08T11:14:28+01:00</time>
      </trkpt>
      <trkpt lat="50.34884" lon="3.69109">
        <ele>75</ele>
        <time>2020-11-08T11:14:33+01:00</time>
      </trkpt>
      <trkpt lat="50.34802" lon="3.69246">
        <ele>78</ele>
        <time>2017-04-09T08:14:38+02:00</time>
      </trkpt>
      <trkpt lat="50.34768" lon="3.69293">
        <ele>78</ele>
        <time>2017-04-09T08:14:53+02:00</time>
      </trkpt>
      <trkpt lat="50.34796" lon="3.6931">
        <ele>79</ele>
        <time>2020-11-08T11:14:48+01:00</time>
      </trkpt>
      <trkpt lat="50.34805" lon="3.69333">
        <ele>80</ele>
        <time>2017-04-09T08:15:23+02:00</time>
      </trkpt>
      <trkpt lat="50.34803" lon="3.69366">
        <ele>81</ele>
        <time>2017-04-09T08:15:43+02:00</time>
      </trkpt>
      <trkpt lat="50.34799" lon="3.69402">
        <ele>82</ele>
        <time>2017-04-09T08:16:01+02:00</time>
      </trkpt>
      <trkpt lat="50.34786" lon="3.69435">
        <ele>83</ele>
        <time>2017-04-09T08:16:15+02:00</time>
      </trkpt>
      <trkpt lat="50.34771" lon="3.69464">
        <ele>83</ele>
        <time>2017-04-09T08:16:36+02:00</time>
      </trkpt>
      <trkpt lat="50.34752" lon="3.69487">
        <ele>83</ele>
        <time>2017-04-09T08:16:51+02:00</time>
      </trkpt>
      <trkpt lat="50.34736" lon="3.69514">
        <ele>83</ele>
        <time>2017-04-09T08:17:08+02:00</time>
      </trkpt>
      <trkpt lat="50.34716" lon="3.69535">
        <ele>83</ele>
        <time>2017-04-09T08:17:27+02:00</time>
      </trkpt>
      <trkpt lat="50.34697" lon="3.69555">
        <ele>83</ele>
        <time>2017-04-09T08:17:42+02:00</time>
      </trkpt>
      <trkpt lat="50.34679" lon="3.69576">
        <ele>83</ele>
        <time>2017-04-09T08:17:57+02:00</time>
      </trkpt>
      <trkpt lat="50.3466" lon="3.69596">
        <ele>83</ele>
        <time>2017-04-09T08:18:14+02:00</time>
      </trkpt>
      <trkpt lat="50.34641" lon="3.69618">
        <ele>84</ele>
        <time>2017-04-09T08:18:30+02:00</time>
      </trkpt>
      <trkpt lat="50.34622" lon="3.69638">
        <ele>84</ele>
        <time>2017-04-09T08:18:47+02:00</time>
      </trkpt>
      <trkpt lat="50.34604" lon="3.69662">
        <ele>85</ele>
        <time>2017-04-09T08:19:04+02:00</time>
      </trkpt>
      <trkpt lat="50.3459" lon="3.69689">
        <ele>85</ele>
        <time>2017-04-09T08:19:20+02:00</time>
      </trkpt>
      <trkpt lat="50.34569" lon="3.69705">
        <ele>86</ele>
        <time>2017-04-09T08:19:35+02:00</time>
      </trkpt>
      <trkpt lat="50.34552" lon="3.69731">
        <ele>86</ele>
        <time>2017-04-09T08:19:53+02:00</time>
      </trkpt>
      <trkpt lat="50.34535" lon="3.69756">
        <ele>87</ele>
        <time>2017-04-09T08:20:10+02:00</time>
      </trkpt>
      <trkpt lat="50.34515" lon="3.69774">
        <ele>87</ele>
        <time>2017-04-09T08:20:28+02:00</time>
      </trkpt>
      <trkpt lat="50.34498" lon="3.69798">
        <ele>87</ele>
        <time>2017-04-09T08:20:44+02:00</time>
      </trkpt>
      <trkpt lat="50.34478" lon="3.69818">
        <ele>87</ele>
        <time>2017-04-09T08:21:00+02:00</time>
      </trkpt>
      <trkpt lat="50.34459" lon="3.69836">
        <ele>88</ele>
        <time>2017-04-09T08:21:17+02:00</time>
      </trkpt>
      <trkpt lat="50.34439" lon="3.69856">
        <ele>88</ele>
        <time>2017-04-09T08:21:36+02:00</time>
      </trkpt>
      <trkpt lat="50.34423" lon="3.69881">
        <ele>89</ele>
        <time>2017-04-09T08:21:56+02:00</time>
      </trkpt>
      <trkpt lat="50.34404" lon="3.69901">
        <ele>89</ele>
        <time>2017-04-09T08:22:10+02:00</time>
      </trkpt>
      <trkpt lat="50.34389" lon="3.69928">
        <ele>90</ele>
        <time>2017-04-09T08:22:26+02:00</time>
      </trkpt>
      <trkpt lat="50.34376" lon="3.69959">
        <ele>90</ele>
        <time>2017-04-09T08:22:42+02:00</time>
      </trkpt>
      <trkpt lat="50.34365" lon="3.69991">
        <ele>91</ele>
        <time>2017-04-09T08:22:58+02:00</time>
      </trkpt>
      <trkpt lat="50.34352" lon="3.7002">
        <ele>91</ele>
        <time>2017-04-09T08:23:16+02:00</time>
      </trkpt>
      <trkpt lat="50.34341" lon="3.70054">
        <ele>91</ele>
        <time>2017-04-09T08:23:33+02:00</time>
      </trkpt>
      <trkpt lat="50.34327" lon="3.70081">
        <ele>91</ele>
        <time>2017-04-09T08:23:49+02:00</time>
      </trkpt>
      <trkpt lat="50.34313" lon="3.70111">
        <ele>90</ele>
        <time>2017-04-09T08:24:06+02:00</time>
      </trkpt>
      <trkpt lat="50.34293" lon="3.70128">
        <ele>90</ele>
        <time>2017-04-09T08:24:22+02:00</time>
      </trkpt>
      <trkpt lat="50.34272" lon="3.70145">
        <ele>90</ele>
        <time>2017-04-09T08:24:39+02:00</time>
      </trkpt>
      <trkpt lat="50.34253" lon="3.70166">
        <ele>90</ele>
        <time>2017-04-09T08:24:56+02:00</time>
      </trkpt>
      <trkpt lat="50.34233" lon="3.70188">
        <ele>91</ele>
        <time>2017-04-09T08:25:12+02:00</time>
      </trkpt>
      <trkpt lat="50.34213" lon="3.70205">
        <ele>92</ele>
        <time>2017-04-09T08:25:27+02:00</time>
      </trkpt>
      <trkpt lat="50.34191" lon="3.70216">
        <ele>92</ele>
        <time>2017-04-09T08:25:44+02:00</time>
      </trkpt>
      <trkpt lat="50.3417" lon="3.70232">
        <ele>93</ele>
        <time>2017-04-09T08:25:59+02:00</time>
      </trkpt>
      <trkpt lat="50.34147" lon="3.70248">
        <ele>93</ele>
        <time>2017-04-09T08:26:18+02:00</time>
      </trkpt>
      <trkpt lat="50.34127" lon="3.70264">
        <ele>94</ele>
        <time>2017-04-09T08:26:35+02:00</time>
      </trkpt>
      <trkpt lat="50.34104" lon="3.7028">
        <ele>94</ele>
        <time>2017-04-09T08:26:52+02:00</time>
      </trkpt>
      <trkpt lat="50.34085" lon="3.70301">
        <ele>94</ele>
        <time>2017-04-09T08:27:07+02:00</time>
      </trkpt>
      <trkpt lat="50.34063" lon="3.70311">
        <ele>94</ele>
        <time>2017-04-09T08:27:31+02:00</time>
      </trkpt>
      <trkpt lat="50.34042" lon="3.70329">
        <ele>94</ele>
        <time>2017-04-09T08:27:49+02:00</time>
      </trkpt>
      <trkpt lat="50.34022" lon="3.70347">
        <ele>94</ele>
        <time>2017-04-09T08:28:06+02:00</time>
      </trkpt>
      <trkpt lat="50.34002" lon="3.70364">
        <ele>95</ele>
        <time>2017-04-09T08:28:24+02:00</time>
      </trkpt>
      <trkpt lat="50.33983" lon="3.70384">
        <ele>95</ele>
        <time>2017-04-09T08:28:40+02:00</time>
      </trkpt>
      <trkpt lat="50.33964" lon="3.70405">
        <ele>96</ele>
        <time>2017-04-09T08:28:56+02:00</time>
      </trkpt>
      <trkpt lat="50.33946" lon="3.70428">
        <ele>96</ele>
        <time>2017-04-09T08:29:12+02:00</time>
      </trkpt>
      <trkpt lat="50.33926" lon="3.7045">
        <ele>97</ele>
        <time>2017-04-09T08:29:28+02:00</time>
      </trkpt>
      <trkpt lat="50.33911" lon="3.70476">
        <ele>97</ele>
        <time>2017-04-09T08:29:46+02:00</time>
      </trkpt>
      <trkpt lat="50.33893" lon="3.705">
        <ele>97</ele>
        <time>2017-04-09T08:30:01+02:00</time>
      </trkpt>
      <trkpt lat="50.33875" lon="3.70522">
        <ele>97</ele>
        <time>2017-04-09T08:30:17+02:00</time>
      </trkpt>
      <trkpt lat="50.33859" lon="3.70547">
        <ele>97</ele>
        <time>2017-04-09T08:30:33+02:00</time>
      </trkpt>
      <trkpt lat="50.33841" lon="3.70573">
        <ele>97</ele>
        <time>2017-04-09T08:30:48+02:00</time>
      </trkpt>
      <trkpt lat="50.33822" lon="3.70594">
        <ele>97</ele>
        <time>2017-04-09T08:31:05+02:00</time>
      </trkpt>
      <trkpt lat="50.33802" lon="3.70613">
        <ele>97</ele>
        <time>2017-04-09T08:31:26+02:00</time>
      </trkpt>
      <trkpt lat="50.33783" lon="3.70633">
        <ele>97</ele>
        <time>2017-04-09T08:31:42+02:00</time>
      </trkpt>
      <trkpt lat="50.33766" lon="3.70657">
        <ele>97</ele>
        <time>2017-04-09T08:31:57+02:00</time>
      </trkpt>
      <trkpt lat="50.3375" lon="3.70685">
        <ele>97</ele>
        <time>2017-04-09T08:32:12+02:00</time>
      </trkpt>
      <trkpt lat="50.33738" lon="3.70716">
        <ele>97</ele>
        <time>2017-04-09T08:32:30+02:00</time>
      </trkpt>
      <trkpt lat="50.33728" lon="3.70749">
        <ele>98</ele>
        <time>2017-04-09T08:32:47+02:00</time>
      </trkpt>
      <trkpt lat="50.33723" lon="3.70786">
        <ele>97</ele>
        <time>2017-04-09T08:33:04+02:00</time>
      </trkpt>
      <trkpt lat="50.33709" lon="3.70817">
        <ele>96</ele>
        <time>2017-04-09T08:33:21+02:00</time>
      </trkpt>
      <trkpt lat="50.33694" lon="3.70844">
        <ele>96</ele>
        <time>2017-04-09T08:33:36+02:00</time>
      </trkpt>
      <trkpt lat="50.33676" lon="3.70869">
        <ele>97</ele>
        <time>2017-04-09T08:33:52+02:00</time>
      </trkpt>
      <trkpt lat="50.33657" lon="3.7089">
        <ele>97</ele>
        <time>2017-04-09T08:34:09+02:00</time>
      </trkpt>
      <trkpt lat="50.33637" lon="3.70906">
        <ele>97</ele>
        <time>2017-04-09T08:34:24+02:00</time>
      </trkpt>
      <trkpt lat="50.33618" lon="3.70926">
        <ele>97</ele>
        <time>2017-04-09T08:34:42+02:00</time>
      </trkpt>
      <trkpt lat="50.33599" lon="3.70948">
        <ele>97</ele>
        <time>2017-04-09T08:34:59+02:00</time>
      </trkpt>
      <trkpt lat="50.33579" lon="3.70967">
        <ele>97</ele>
        <time>2017-04-09T08:35:15+02:00</time>
      </trkpt>
      <trkpt lat="50.33556" lon="3.70967">
        <ele>97</ele>
        <time>2017-04-09T08:35:32+02:00</time>
      </trkpt>
      <trkpt lat="50.33537" lon="3.70946">
        <ele>98</ele>
        <time>2017-04-09T08:35:48+02:00</time>
      </trkpt>
      <trkpt lat="50.33517" lon="3.70925">
        <ele>99</ele>
        <time>2017-04-09T08:36:04+02:00</time>
      </trkpt>
      <trkpt lat="50.33497" lon="3.70907">
        <ele>99</ele>
        <time>2017-04-09T08:36:20+02:00</time>
      </trkpt>
      <trkpt lat="50.33476" lon="3.70924">
        <ele>99</ele>
        <time>2017-04-09T08:37:55+02:00</time>
      </trkpt>
      <trkpt lat="50.33476" lon="3.70961">
        <ele>99</ele>
        <time>2017-04-09T08:38:09+02:00</time>
      </trkpt>
      <trkpt lat="50.33468" lon="3.70996">
        <ele>98</ele>
        <time>2017-04-09T08:38:25+02:00</time>
      </trkpt>
      <trkpt lat="50.33464" lon="3.71032">
        <ele>99</ele>
        <time>2017-04-09T08:38:41+02:00</time>
      </trkpt>
      <trkpt lat="50.33462" lon="3.71068">
        <ele>99</ele>
        <time>2017-04-09T08:38:56+02:00</time>
      </trkpt>
      <trkpt lat="50.33456" lon="3.71103">
        <ele>99</ele>
        <time>2017-04-09T08:39:11+02:00</time>
      </trkpt>
      <trkpt lat="50.33453" lon="3.71138">
        <ele>99</ele>
        <time>2017-04-09T08:39:27+02:00</time>
      </trkpt>
      <trkpt lat="50.33444" lon="3.71171">
        <ele>99</ele>
        <time>2017-04-09T08:39:42+02:00</time>
      </trkpt>
      <trkpt lat="50.33438" lon="3.71205">
        <ele>99</ele>
        <time>2017-04-09T08:40:00+02:00</time>
      </trkpt>
      <trkpt lat="50.33425" lon="3.71234">
        <ele>99</ele>
        <time>2017-04-09T08:40:15+02:00</time>
      </trkpt>
      <trkpt lat="50.33417" lon="3.71268">
        <ele>98</ele>
        <time>2017-04-09T08:40:30+02:00</time>
      </trkpt>
      <trkpt lat="50.33404" lon="3.71298">
        <ele>97</ele>
        <time>2017-04-09T08:40:44+02:00</time>
      </trkpt>
      <trkpt lat="50.33389" lon="3.71364">
        <ele>94</ele>
        <time>2017-04-09T08:41:15+02:00</time>
      </trkpt>
      <trkpt lat="50.33375" lon="3.71392">
        <ele>93</ele>
        <time>2017-04-09T08:41:31+02:00</time>
      </trkpt>
      <trkpt lat="50.33357" lon="3.71412">
        <ele>92</ele>
        <time>2017-04-09T08:41:46+02:00</time>
      </trkpt>
      <trkpt lat="50.33337" lon="3.71432">
        <ele>90</ele>
        <time>2017-04-09T08:42:05+02:00</time>
      </trkpt>
      <trkpt lat="50.33318" lon="3.71452">
        <ele>89</ele>
        <time>2017-04-09T08:42:20+02:00</time>
      </trkpt>
      <trkpt lat="50.33304" lon="3.7148">
        <ele>88</ele>
        <time>2017-04-09T08:42:34+02:00</time>
      </trkpt>
      <trkpt lat="50.33288" lon="3.7151">
        <ele>88</ele>
        <time>2017-04-09T08:42:51+02:00</time>
      </trkpt>
      <trkpt lat="50.33277" lon="3.71541">
        <ele>88</ele>
        <time>2017-04-09T08:43:07+02:00</time>
      </trkpt>
      <trkpt lat="50.33271" lon="3.71577">
        <ele>88</ele>
        <time>2017-04-09T08:43:25+02:00</time>
      </trkpt>
      <trkpt lat="50.33259" lon="3.71609">
        <ele>90</ele>
        <time>2017-04-09T08:43:42+02:00</time>
      </trkpt>
      <trkpt lat="50.33246" lon="3.71639">
        <ele>91</ele>
        <time>2017-04-09T08:44:01+02:00</time>
      </trkpt>
      <trkpt lat="50.33234" lon="3.71669">
        <ele>93</ele>
        <time>2017-04-09T08:44:19+02:00</time>
      </trkpt>
      <trkpt lat="50.33218" lon="3.71697">
        <ele>95</ele>
        <time>2017-04-09T08:44:33+02:00</time>
      </trkpt>
      <trkpt lat="50.33209" lon="3.71729">
        <ele>97</ele>
        <time>2017-04-09T08:44:50+02:00</time>
      </trkpt>
      <trkpt lat="50.33201" lon="3.71763">
        <ele>98</ele>
        <time>2017-04-09T08:45:05+02:00</time>
      </trkpt>
      <trkpt lat="50.33197" lon="3.71797">
        <ele>99</ele>
        <time>2017-04-09T08:45:23+02:00</time>
      </trkpt>
      <trkpt lat="50.33191" lon="3.71833">
        <ele>100</ele>
        <time>2017-04-09T08:45:39+02:00</time>
      </trkpt>
      <trkpt lat="50.33179" lon="3.71865">
        <ele>101</ele>
        <time>2017-04-09T08:45:56+02:00</time>
      </trkpt>
      <trkpt lat="50.33163" lon="3.71933">
        <ele>103</ele>
        <time>2017-04-09T08:46:31+02:00</time>
      </trkpt>
      <trkpt lat="50.33153" lon="3.71966">
        <ele>103</ele>
        <time>2017-04-09T08:46:46+02:00</time>
      </trkpt>
      <trkpt lat="50.3314" lon="3.71996">
        <ele>104</ele>
        <time>2017-04-09T08:47:02+02:00</time>
      </trkpt>
      <trkpt lat="50.3313" lon="3.72029">
        <ele>104</ele>
        <time>2017-04-09T08:47:21+02:00</time>
      </trkpt>
      <trkpt lat="50.33122" lon="3.72062">
        <ele>105</ele>
        <time>2017-04-09T08:47:35+02:00</time>
      </trkpt>
      <trkpt lat="50.3311" lon="3.72095">
        <ele>106</ele>
        <time>2017-04-09T08:47:51+02:00</time>
      </trkpt>
      <trkpt lat="50.33104" lon="3.72131">
        <ele>105</ele>
        <time>2017-04-09T08:48:09+02:00</time>
      </trkpt>
      <trkpt lat="50.3309" lon="3.72159">
        <ele>106</ele>
        <time>2017-04-09T08:48:27+02:00</time>
      </trkpt>
      <trkpt lat="50.33075" lon="3.72185">
        <ele>106</ele>
        <time>2017-04-09T08:48:43+02:00</time>
      </trkpt>
      <trkpt lat="50.3306" lon="3.72213">
        <ele>105</ele>
        <time>2017-04-09T08:48:59+02:00</time>
      </trkpt>
      <trkpt lat="50.33046" lon="3.72242">
        <ele>104</ele>
        <time>2017-04-09T08:49:15+02:00</time>
      </trkpt>
      <trkpt lat="50.33033" lon="3.72272">
        <ele>103</ele>
        <time>2017-04-09T08:49:30+02:00</time>
      </trkpt>
      <trkpt lat="50.33022" lon="3.72303">
        <ele>103</ele>
        <time>2017-04-09T08:49:44+02:00</time>
      </trkpt>
      <trkpt lat="50.33014" lon="3.72336">
        <ele>102</ele>
        <time>2017-04-09T08:49:59+02:00</time>
      </trkpt>
      <trkpt lat="50.33008" lon="3.7237">
        <ele>101</ele>
        <time>2017-04-09T08:50:14+02:00</time>
      </trkpt>
      <trkpt lat="50.32993" lon="3.72399">
        <ele>101</ele>
        <time>2017-04-09T08:50:29+02:00</time>
      </trkpt>
      <trkpt lat="50.3298" lon="3.72428">
        <ele>101</ele>
        <time>2017-04-09T08:50:45+02:00</time>
      </trkpt>
      <trkpt lat="50.3296" lon="3.72449">
        <ele>102</ele>
        <time>2017-04-09T08:51:02+02:00</time>
      </trkpt>
      <trkpt lat="50.3294" lon="3.72473">
        <ele>103</ele>
        <time>2017-04-09T08:51:23+02:00</time>
      </trkpt>
      <trkpt lat="50.32925" lon="3.725">
        <ele>103</ele>
        <time>2017-04-09T08:51:35+02:00</time>
      </trkpt>
      <trkpt lat="50.32922" lon="3.72536">
        <ele>103</ele>
        <time>2017-04-09T08:51:50+02:00</time>
      </trkpt>
      <trkpt lat="50.32917" lon="3.72572">
        <ele>104</ele>
        <time>2017-04-09T08:52:08+02:00</time>
      </trkpt>
      <trkpt lat="50.32917" lon="3.72608">
        <ele>105</ele>
        <time>2017-04-09T08:52:24+02:00</time>
      </trkpt>
      <trkpt lat="50.32917" lon="3.72644">
        <ele>106</ele>
        <time>2017-04-09T08:52:41+02:00</time>
      </trkpt>
      <trkpt lat="50.3292" lon="3.72681">
        <ele>107</ele>
        <time>2017-04-09T08:52:59+02:00</time>
      </trkpt>
      <trkpt lat="50.32926" lon="3.72717">
        <ele>107</ele>
        <time>2017-04-09T08:53:16+02:00</time>
      </trkpt>
      <trkpt lat="50.32927" lon="3.72753">
        <ele>108</ele>
        <time>2017-04-09T08:53:33+02:00</time>
      </trkpt>
      <trkpt lat="50.3293" lon="3.72789">
        <ele>109</ele>
        <time>2017-04-09T08:53:50+02:00</time>
      </trkpt>
      <trkpt lat="50.32927" lon="3.72824">
        <ele>110</ele>
        <time>2017-04-09T08:54:07+02:00</time>
      </trkpt>
      <trkpt lat="50.32925" lon="3.7286">
        <ele>110</ele>
        <time>2017-04-09T08:54:22+02:00</time>
      </trkpt>
      <trkpt lat="50.32925" lon="3.72897">
        <ele>111</ele>
        <time>2017-04-09T08:54:37+02:00</time>
      </trkpt>
      <trkpt lat="50.32925" lon="3.72932">
        <ele>111</ele>
        <time>2017-04-09T08:54:53+02:00</time>
      </trkpt>
      <trkpt lat="50.32922" lon="3.72968">
        <ele>111</ele>
        <time>2017-04-09T08:55:10+02:00</time>
      </trkpt>
      <trkpt lat="50.32924" lon="3.73004">
        <ele>112</ele>
        <time>2017-04-09T08:55:26+02:00</time>
      </trkpt>
      <trkpt lat="50.32918" lon="3.73041">
        <ele>113</ele>
        <time>2017-04-09T08:55:42+02:00</time>
      </trkpt>
      <trkpt lat="50.32918" lon="3.73077">
        <ele>114</ele>
        <time>2017-04-09T08:55:57+02:00</time>
      </trkpt>
      <trkpt lat="50.32914" lon="3.73113">
        <ele>114</ele>
        <time>2017-04-09T08:56:14+02:00</time>
      </trkpt>
      <trkpt lat="50.32908" lon="3.73146">
        <ele>114</ele>
        <time>2017-04-09T08:56:29+02:00</time>
      </trkpt>
      <trkpt lat="50.32906" lon="3.73195">
        <ele>113</ele>
        <time>2017-04-09T09:00:42+02:00</time>
      </trkpt>
      <trkpt lat="50.32901" lon="3.73253">
        <ele>114</ele>
        <time>2020-11-08T11:26:58+01:00</time>
      </trkpt>
      <trkpt lat="50.32901" lon="3.73302">
        <ele>113</ele>
        <time>2017-04-09T09:01:13+02:00</time>
      </trkpt>
      <trkpt lat="50.32882" lon="3.73343">
        <ele>114</ele>
        <time>2017-04-09T09:10:12+02:00</time>
      </trkpt>
      <trkpt lat="50.32877" lon="3.73366">
        <ele>114</ele>
        <time>2017-04-09T09:10:27+02:00</time>
      </trkpt>
      <trkpt lat="50.32872" lon="3.73402">
        <ele>113</ele>
        <time>2017-04-09T09:10:44+02:00</time>
      </trkpt>
      <trkpt lat="50.32865" lon="3.73438">
        <ele>114</ele>
        <time>2017-04-09T09:10:59+02:00</time>
      </trkpt>
      <trkpt lat="50.32856" lon="3.73471">
        <ele>114</ele>
        <time>2017-04-09T09:11:14+02:00</time>
      </trkpt>
      <trkpt lat="50.32852" lon="3.73507">
        <ele>114</ele>
        <time>2017-04-09T09:11:30+02:00</time>
      </trkpt>
      <trkpt lat="50.32844" lon="3.73541">
        <ele>114</ele>
        <time>2017-04-09T09:11:46+02:00</time>
      </trkpt>
      <trkpt lat="50.32845" lon="3.73577">
        <ele>113</ele>
        <time>2017-04-09T09:12:00+02:00</time>
      </trkpt>
      <trkpt lat="50.3284" lon="3.73613">
        <ele>113</ele>
        <time>2017-04-09T09:12:17+02:00</time>
      </trkpt>
      <trkpt lat="50.32837" lon="3.73648">
        <ele>113</ele>
        <time>2017-04-09T09:12:33+02:00</time>
      </trkpt>
      <trkpt lat="50.32831" lon="3.73683">
        <ele>113</ele>
        <time>2017-04-09T09:12:48+02:00</time>
      </trkpt>
      <trkpt lat="50.32835" lon="3.73719">
        <ele>114</ele>
        <time>2017-04-09T09:13:07+02:00</time>
      </trkpt>
      <trkpt lat="50.32832" lon="3.73754">
        <ele>114</ele>
        <time>2017-04-09T09:13:23+02:00</time>
      </trkpt>
      <trkpt lat="50.3283" lon="3.73792">
        <ele>114</ele>
        <time>2017-04-09T09:13:38+02:00</time>
      </trkpt>
      <trkpt lat="50.32822" lon="3.73827">
        <ele>114</ele>
        <time>2017-04-09T09:13:57+02:00</time>
      </trkpt>
      <trkpt lat="50.32818" lon="3.73863">
        <ele>115</ele>
        <time>2017-04-09T09:14:13+02:00</time>
      </trkpt>
      <trkpt lat="50.32826" lon="3.73917">
        <ele>115</ele>
        <time>2017-04-09T09:14:36+02:00</time>
      </trkpt>
      <trkpt lat="50.32828" lon="3.73953">
        <ele>114</ele>
        <time>2017-04-09T09:14:53+02:00</time>
      </trkpt>
      <trkpt lat="50.32823" lon="3.73988">
        <ele>114</ele>
        <time>2017-04-09T09:15:09+02:00</time>
      </trkpt>
      <trkpt lat="50.32813" lon="3.74021">
        <ele>114</ele>
        <time>2017-04-09T09:15:25+02:00</time>
      </trkpt>
      <trkpt lat="50.32802" lon="3.74054">
        <ele>113</ele>
        <time>2017-04-09T09:15:41+02:00</time>
      </trkpt>
      <trkpt lat="50.328" lon="3.74091">
        <ele>113</ele>
        <time>2017-04-09T09:15:56+02:00</time>
      </trkpt>
      <trkpt lat="50.32796" lon="3.74127">
        <ele>112</ele>
        <time>2017-04-09T09:16:13+02:00</time>
      </trkpt>
      <trkpt lat="50.32786" lon="3.7416">
        <ele>112</ele>
        <time>2017-04-09T09:16:30+02:00</time>
      </trkpt>
      <trkpt lat="50.32779" lon="3.74193">
        <ele>111</ele>
        <time>2017-04-09T09:16:45+02:00</time>
      </trkpt>
      <trkpt lat="50.32774" lon="3.74228">
        <ele>111</ele>
        <time>2017-04-09T09:17:01+02:00</time>
      </trkpt>
      <trkpt lat="50.32773" lon="3.74265">
        <ele>110</ele>
        <time>2017-04-09T09:17:18+02:00</time>
      </trkpt>
      <trkpt lat="50.32775" lon="3.74302">
        <ele>108</ele>
        <time>2017-04-09T09:17:35+02:00</time>
      </trkpt>
      <trkpt lat="50.32773" lon="3.74337">
        <ele>107</ele>
        <time>2017-04-09T09:17:51+02:00</time>
      </trkpt>
      <trkpt lat="50.32761" lon="3.74368">
        <ele>107</ele>
        <time>2017-04-09T09:18:17+02:00</time>
      </trkpt>
      <trkpt lat="50.32757" lon="3.74403">
        <ele>107</ele>
        <time>2017-04-09T09:18:34+02:00</time>
      </trkpt>
      <trkpt lat="50.32752" lon="3.74438">
        <ele>108</ele>
        <time>2017-04-09T09:18:50+02:00</time>
      </trkpt>
      <trkpt lat="50.32749" lon="3.74474">
        <ele>110</ele>
        <time>2017-04-09T09:19:06+02:00</time>
      </trkpt>
      <trkpt lat="50.32743" lon="3.7451">
        <ele>111</ele>
        <time>2017-04-09T09:19:23+02:00</time>
      </trkpt>
      <trkpt lat="50.32725" lon="3.7454">
        <ele>111</ele>
        <time>2017-04-09T09:19:39+02:00</time>
      </trkpt>
      <trkpt lat="50.32717" lon="3.74574">
        <ele>111</ele>
        <time>2017-04-09T09:19:53+02:00</time>
      </trkpt>
      <trkpt lat="50.32703" lon="3.74603">
        <ele>109</ele>
        <time>2017-04-09T09:20:10+02:00</time>
      </trkpt>
      <trkpt lat="50.3269" lon="3.74632">
        <ele>107</ele>
        <time>2017-04-09T09:20:26+02:00</time>
      </trkpt>
      <trkpt lat="50.32681" lon="3.74664">
        <ele>105</ele>
        <time>2017-04-09T09:20:41+02:00</time>
      </trkpt>
      <trkpt lat="50.3267" lon="3.74696">
        <ele>104</ele>
        <time>2017-04-09T09:20:56+02:00</time>
      </trkpt>
      <trkpt lat="50.3266" lon="3.74738">
        <ele>103</ele>
        <time>2020-11-08T11:30:28+01:00</time>
      </trkpt>
      <trkpt lat="50.32681" lon="3.74769">
        <ele>102</ele>
        <time>2020-11-08T11:30:33+01:00</time>
      </trkpt>
      <trkpt lat="50.32695" lon="3.74804">
        <ele>101</ele>
        <time>2020-11-08T11:30:38+01:00</time>
      </trkpt>
      <trkpt lat="50.32707" lon="3.74833">
        <ele>101</ele>
        <time>2020-11-08T11:30:43+01:00</time>
      </trkpt>
      <trkpt lat="50.32717" lon="3.74853">
        <ele>99</ele>
        <time>2020-11-08T11:30:48+01:00</time>
      </trkpt>
      <trkpt lat="50.32738" lon="3.74856">
        <ele>98</ele>
        <time>2017-04-09T09:24:04+02:00</time>
      </trkpt>
      <trkpt lat="50.3276" lon="3.74863">
        <ele>96</ele>
        <time>2017-04-09T09:24:21+02:00</time>
      </trkpt>
      <trkpt lat="50.32768" lon="3.74891">
        <ele>93</ele>
        <time>2017-04-09T09:24:50+02:00</time>
      </trkpt>
      <trkpt lat="50.32788" lon="3.74894">
        <ele>91</ele>
        <time>2020-11-08T11:31:08+01:00</time>
      </trkpt>
      <trkpt lat="50.32814" lon="3.74901">
        <ele>88</ele>
        <time>2017-04-09T09:25:05+02:00</time>
      </trkpt>
      <trkpt lat="50.32839" lon="3.74912">
        <ele>86</ele>
        <time>2020-11-08T11:31:18+01:00</time>
      </trkpt>
      <trkpt lat="50.32862" lon="3.74907">
        <ele>85</ele>
        <time>2017-04-09T09:25:56+02:00</time>
      </trkpt>
      <trkpt lat="50.32884" lon="3.74897">
        <ele>84</ele>
        <time>2020-11-08T11:31:28+01:00</time>
      </trkpt>
      <trkpt lat="50.32909" lon="3.74897">
        <ele>83</ele>
        <time>2020-11-08T11:31:33+01:00</time>
      </trkpt>
      <trkpt lat="50.32927" lon="3.74885">
        <ele>81</ele>
        <time>2020-11-08T11:31:38+01:00</time>
      </trkpt>
      <trkpt lat="50.32941" lon="3.74854">
        <ele>81</ele>
        <time>2017-04-09T09:27:02+02:00</time>
      </trkpt>
      <trkpt lat="50.32945" lon="3.74835">
        <ele>82</ele>
        <time>2020-11-08T11:31:48+01:00</time>
      </trkpt>
      <trkpt lat="50.3295" lon="3.74804">
        <ele>83</ele>
        <time>2020-11-08T11:31:53+01:00</time>
      </trkpt>
      <trkpt lat="50.32969" lon="3.74782">
        <ele>82</ele>
        <time>2017-04-09T09:28:17+02:00</time>
      </trkpt>
      <trkpt lat="50.3299" lon="3.74761">
        <ele>83</ele>
        <time>2017-04-09T09:28:31+02:00</time>
      </trkpt>
      <trkpt lat="50.33001" lon="3.74755">
        <ele>83</ele>
        <time>2020-11-08T11:32:08+01:00</time>
      </trkpt>
      <trkpt lat="50.3302" lon="3.74742">
        <ele>84</ele>
        <time>2020-11-08T11:32:13+01:00</time>
      </trkpt>
      <trkpt lat="50.33034" lon="3.74735">
        <ele>84</ele>
        <time>2017-04-09T09:29:05+02:00</time>
      </trkpt>
      <trkpt lat="50.33056" lon="3.74723">
        <ele>85</ele>
        <time>2017-04-09T09:29:23+02:00</time>
      </trkpt>
      <trkpt lat="50.33077" lon="3.74709">
        <ele>86</ele>
        <time>2017-04-09T09:29:52+02:00</time>
      </trkpt>
      <trkpt lat="50.33096" lon="3.74698">
        <ele>86</ele>
        <time>2017-04-09T09:30:49+02:00</time>
      </trkpt>
      <trkpt lat="50.33115" lon="3.7469">
        <ele>87</ele>
        <time>2017-04-09T09:31:07+02:00</time>
      </trkpt>
      <trkpt lat="50.33179" lon="3.74666">
        <ele>88</ele>
        <time>2017-04-09T09:31:51+02:00</time>
      </trkpt>
      <trkpt lat="50.332" lon="3.74654">
        <ele>88</ele>
        <time>2017-04-09T09:32:14+02:00</time>
      </trkpt>
      <trkpt lat="50.33265" lon="3.74632">
        <ele>87</ele>
        <time>2020-11-08T11:32:53+01:00</time>
      </trkpt>
      <trkpt lat="50.33287" lon="3.74622">
        <ele>88</ele>
        <time>2020-11-08T11:32:58+01:00</time>
      </trkpt>
      <trkpt lat="50.33302" lon="3.74605">
        <ele>89</ele>
        <time>2020-11-08T11:33:03+01:00</time>
      </trkpt>
      <trkpt lat="50.33313" lon="3.746">
        <ele>89</ele>
        <time>2020-11-08T11:33:08+01:00</time>
      </trkpt>
      <trkpt lat="50.33318" lon="3.74559">
        <ele>90</ele>
        <time>2020-11-08T11:33:13+01:00</time>
      </trkpt>
      <trkpt lat="50.33309" lon="3.74531">
        <ele>90</ele>
        <time>2020-11-08T11:33:18+01:00</time>
      </trkpt>
      <trkpt lat="50.33305" lon="3.74505">
        <ele>89</ele>
        <time>2020-11-08T11:33:23+01:00</time>
      </trkpt>
      <trkpt lat="50.33299" lon="3.74479">
        <ele>90</ele>
        <time>2017-04-09T09:34:49+02:00</time>
      </trkpt>
      <trkpt lat="50.33293" lon="3.74453">
        <ele>90</ele>
        <time>2020-11-08T11:33:33+01:00</time>
      </trkpt>
      <trkpt lat="50.333" lon="3.7439">
        <ele>90</ele>
        <time>2017-04-09T09:35:05+02:00</time>
      </trkpt>
      <trkpt lat="50.33288" lon="3.74353">
        <ele>91</ele>
        <time>2017-04-09T09:35:18+02:00</time>
      </trkpt>
      <trkpt lat="50.33297" lon="3.74275">
        <ele>91</ele>
        <time>2020-11-08T11:33:48+01:00</time>
      </trkpt>
      <trkpt lat="50.33312" lon="3.74192">
        <ele>90</ele>
        <time>2017-04-09T09:36:51+02:00</time>
      </trkpt>
      <trkpt lat="50.3332" lon="3.74168">
        <ele>88</ele>
        <time>2020-11-08T11:33:58+01:00</time>
      </trkpt>
      <trkpt lat="50.33331" lon="3.74078">
        <ele>85</ele>
        <time>2020-11-08T11:34:03+01:00</time>
      </trkpt>
      <trkpt lat="50.33352" lon="3.73988">
        <ele>81</ele>
        <time>2020-11-08T11:34:08+01:00</time>
      </trkpt>
      <trkpt lat="50.33423" lon="3.73812">
        <ele>76</ele>
        <time>2017-04-09T09:39:55+02:00</time>
      </trkpt>
      <trkpt lat="50.33436" lon="3.73782">
        <ele>77</ele>
        <time>2017-04-09T09:40:22+02:00</time>
      </trkpt>
      <trkpt lat="50.33459" lon="3.73793">
        <ele>76</ele>
        <time>2017-04-09T09:40:39+02:00</time>
      </trkpt>
      <trkpt lat="50.33523" lon="3.73801">
        <ele>73</ele>
        <time>2020-11-08T11:34:28+01:00</time>
      </trkpt>
      <trkpt lat="50.33574" lon="3.73785">
        <ele>71</ele>
        <time>2020-11-08T11:34:33+01:00</time>
      </trkpt>
      <trkpt lat="50.33597" lon="3.73771">
        <ele>70</ele>
        <time>2020-11-08T11:34:38+01:00</time>
      </trkpt>
      <trkpt lat="50.33609" lon="3.73786">
        <ele>70</ele>
        <time>2020-11-08T11:34:43+01:00</time>
      </trkpt>
      <trkpt lat="50.33615" lon="3.73807">
        <ele>71</ele>
        <time>2017-04-09T09:44:11+02:00</time>
      </trkpt>
      <trkpt lat="50.33646" lon="3.73788">
        <ele>71</ele>
        <time>2017-04-09T09:44:26+02:00</time>
      </trkpt>
      <trkpt lat="50.33657" lon="3.73775">
        <ele>71</ele>
        <time>2020-11-08T11:34:58+01:00</time>
      </trkpt>
      <trkpt lat="50.33666" lon="3.73751">
        <ele>70</ele>
        <time>2017-04-09T09:44:46+02:00</time>
      </trkpt>
      <trkpt lat="50.33665" lon="3.73712">
        <ele>73</ele>
        <time>2017-04-09T09:45:03+02:00</time>
      </trkpt>
      <trkpt lat="50.33664" lon="3.7368">
        <ele>75</ele>
        <time>2017-04-09T09:45:17+02:00</time>
      </trkpt>
      <trkpt lat="50.33655" lon="3.73651">
        <ele>76</ele>
        <time>2017-04-09T09:45:33+02:00</time>
      </trkpt>
      <trkpt lat="50.33635" lon="3.73636">
        <ele>74</ele>
        <time>2017-04-09T09:45:47+02:00</time>
      </trkpt>
      <trkpt lat="50.33613" lon="3.7362">
        <ele>73</ele>
        <time>2017-04-09T09:46:02+02:00</time>
      </trkpt>
      <trkpt lat="50.33606" lon="3.73607">
        <ele>73</ele>
        <time>2020-11-08T11:35:33+01:00</time>
      </trkpt>
      <trkpt lat="50.33603" lon="3.73584">
        <ele>73</ele>
        <time>2017-04-09T09:46:20+02:00</time>
      </trkpt>
      <trkpt lat="50.33602" lon="3.73548">
        <ele>73</ele>
        <time>2017-04-09T09:46:37+02:00</time>
      </trkpt>
      <trkpt lat="50.33605" lon="3.73516">
        <ele>73</ele>
        <time>2017-04-09T09:46:53+02:00</time>
      </trkpt>
      <trkpt lat="50.33616" lon="3.73488">
        <ele>73</ele>
        <time>2020-11-08T11:35:53+01:00</time>
      </trkpt>
      <trkpt lat="50.33635" lon="3.73472">
        <ele>73</ele>
        <time>2020-11-08T11:35:58+01:00</time>
      </trkpt>
      <trkpt lat="50.33655" lon="3.73467">
        <ele>73</ele>
        <time>2020-11-08T11:36:03+01:00</time>
      </trkpt>
      <trkpt lat="50.33678" lon="3.73464">
        <ele>73</ele>
        <time>2017-04-09T09:47:53+02:00</time>
      </trkpt>
      <trkpt lat="50.33687" lon="3.7346">
        <ele>73</ele>
        <time>2020-11-08T11:36:13+01:00</time>
      </trkpt>
      <trkpt lat="50.33716" lon="3.73441">
        <ele>72</ele>
        <time>2020-11-08T11:36:18+01:00</time>
      </trkpt>
      <trkpt lat="50.33728" lon="3.73427">
        <ele>71</ele>
        <time>2017-04-09T09:48:22+02:00</time>
      </trkpt>
      <trkpt lat="50.33731" lon="3.73408">
        <ele>70</ele>
        <time>2020-11-08T11:36:28+01:00</time>
      </trkpt>
      <trkpt lat="50.33731" lon="3.73388">
        <ele>70</ele>
        <time>2017-04-09T09:48:44+02:00</time>
      </trkpt>
      <trkpt lat="50.33732" lon="3.73349">
        <ele>69</ele>
        <time>2017-04-09T09:49:04+02:00</time>
      </trkpt>
      <trkpt lat="50.33731" lon="3.7333">
        <ele>69</ele>
        <time>2020-11-08T11:36:43+01:00</time>
      </trkpt>
      <trkpt lat="50.33731" lon="3.7331">
        <ele>70</ele>
        <time>2017-04-09T09:49:20+02:00</time>
      </trkpt>
      <trkpt lat="50.33731" lon="3.73281">
        <ele>72</ele>
        <time>2020-11-08T11:36:53+01:00</time>
      </trkpt>
      <trkpt lat="50.33739" lon="3.73252">
        <ele>72</ele>
        <time>2020-11-08T11:36:58+01:00</time>
      </trkpt>
      <trkpt lat="50.33749" lon="3.73235">
        <ele>73</ele>
        <time>2020-11-08T11:37:03+01:00</time>
      </trkpt>
      <trkpt lat="50.3377" lon="3.73195">
        <ele>74</ele>
        <time>2017-04-09T09:50:14+02:00</time>
      </trkpt>
      <trkpt lat="50.33813" lon="3.73117">
        <ele>74</ele>
        <time>2017-04-09T09:50:53+02:00</time>
      </trkpt>
      <trkpt lat="50.33843" lon="3.73071">
        <ele>73</ele>
        <time>2017-04-09T09:51:41+02:00</time>
      </trkpt>
      <trkpt lat="50.33886" lon="3.73058">
        <ele>72</ele>
        <time>2020-11-08T11:37:23+01:00</time>
      </trkpt>
      <trkpt lat="50.33936" lon="3.73045">
        <ele>71</ele>
        <time>2017-04-09T09:53:02+02:00</time>
      </trkpt>
      <trkpt lat="50.3398" lon="3.73031">
        <ele>71</ele>
        <time>2017-04-09T09:53:19+02:00</time>
      </trkpt>
      <trkpt lat="50.34038" lon="3.7299">
        <ele>70</ele>
        <time>2017-04-09T09:53:34+02:00</time>
      </trkpt>
      <trkpt lat="50.34095" lon="3.72901">
        <ele>69</ele>
        <time>2017-04-09T09:53:50+02:00</time>
      </trkpt>
      <trkpt lat="50.34151" lon="3.72757">
        <ele>68</ele>
        <time>2017-04-09T09:54:08+02:00</time>
      </trkpt>
      <trkpt lat="50.34155" lon="3.72732">
        <ele>68</ele>
        <time>2017-04-09T09:54:26+02:00</time>
      </trkpt>
      <trkpt lat="50.34139" lon="3.72669">
        <ele>70</ele>
        <time>2017-04-09T09:54:42+02:00</time>
      </trkpt>
      <trkpt lat="50.34139" lon="3.72647">
        <ele>72</ele>
        <time>2017-04-09T09:55:02+02:00</time>
      </trkpt>
      <trkpt lat="50.3413" lon="3.7263">
        <ele>73</ele>
        <time>2020-11-08T11:38:08+01:00</time>
      </trkpt>
      <trkpt lat="50.34043" lon="3.7271">
        <ele>66</ele>
        <time>2017-04-09T09:55:16+02:00</time>
      </trkpt>
      <trkpt lat="50.34014" lon="3.72725">
        <ele>67</ele>
        <time>2017-04-09T09:55:34+02:00</time>
      </trkpt>
      <trkpt lat="50.34019" lon="3.72667">
        <ele>68</ele>
        <time>2020-11-08T11:38:23+01:00</time>
      </trkpt>
      <trkpt lat="50.34013" lon="3.72639">
        <ele>68</ele>
        <time>2017-04-09T09:55:48+02:00</time>
      </trkpt>
      <trkpt lat="50.3406" lon="3.72539">
        <ele>69</ele>
        <time>2017-04-09T09:56:04+02:00</time>
      </trkpt>
      <trkpt lat="50.34095" lon="3.7247">
        <ele>79</ele>
        <time>2017-04-09T09:58:07+02:00</time>
      </trkpt>
      <trkpt lat="50.3413" lon="3.72396">
        <ele>87</ele>
        <time>2017-04-09T09:58:20+02:00</time>
      </trkpt>
      <trkpt lat="50.34127" lon="3.72378">
        <ele>86</ele>
        <time>2017-04-09T09:58:38+02:00</time>
      </trkpt>
      <trkpt lat="50.34156" lon="3.7229">
        <ele>83</ele>
        <time>2017-04-09T09:58:55+02:00</time>
      </trkpt>
      <trkpt lat="50.3417" lon="3.72247">
        <ele>82</ele>
        <time>2017-04-09T09:59:08+02:00</time>
      </trkpt>
      <trkpt lat="50.34191" lon="3.72185">
        <ele>81</ele>
        <time>2017-04-09T09:59:23+02:00</time>
      </trkpt>
      <trkpt lat="50.34212" lon="3.72095">
        <ele>81</ele>
        <time>2017-04-09T09:59:39+02:00</time>
      </trkpt>
      <trkpt lat="50.34214" lon="3.72052">
        <ele>81</ele>
        <time>2017-04-09T10:01:28+02:00</time>
      </trkpt>
      <trkpt lat="50.3423" lon="3.72015">
        <ele>86</ele>
        <time>2017-04-09T10:02:49+02:00</time>
      </trkpt>
      <trkpt lat="50.34222" lon="3.7198">
        <ele>85</ele>
        <time>2020-11-08T11:39:23+01:00</time>
      </trkpt>
      <trkpt lat="50.34223" lon="3.71965">
        <ele>87</ele>
        <time>2020-11-08T11:39:28+01:00</time>
      </trkpt>
      <trkpt lat="50.34232" lon="3.71945">
        <ele>89</ele>
        <time>2017-04-09T10:03:27+02:00</time>
      </trkpt>
      <trkpt lat="50.34269" lon="3.7181">
        <ele>91</ele>
        <time>2017-04-09T10:05:55+02:00</time>
      </trkpt>
      <trkpt lat="50.3429" lon="3.71747">
        <ele>88</ele>
        <time>2017-04-09T10:06:26+02:00</time>
      </trkpt>
      <trkpt lat="50.34348" lon="3.71634">
        <ele>81</ele>
        <time>2017-04-09T10:06:41+02:00</time>
      </trkpt>
      <trkpt lat="50.34369" lon="3.71622">
        <ele>82</ele>
        <time>2017-04-09T10:06:57+02:00</time>
      </trkpt>
      <trkpt lat="50.34401" lon="3.71569">
        <ele>79</ele>
        <time>2017-04-09T10:07:13+02:00</time>
      </trkpt>
      <trkpt lat="50.34525" lon="3.71386">
        <ele>80</ele>
        <time>2017-04-09T10:09:38+02:00</time>
      </trkpt>
      <trkpt lat="50.34536" lon="3.71355">
        <ele>80</ele>
        <time>2017-04-09T10:10:01+02:00</time>
      </trkpt>
      <trkpt lat="50.34555" lon="3.7132">
        <ele>80</ele>
        <time>2017-04-09T10:10:24+02:00</time>
      </trkpt>
      <trkpt lat="50.34574" lon="3.71271">
        <ele>79</ele>
        <time>2017-04-09T10:10:38+02:00</time>
      </trkpt>
      <trkpt lat="50.34587" lon="3.71228">
        <ele>78</ele>
        <time>2017-04-09T10:11:14+02:00</time>
      </trkpt>
      <trkpt lat="50.34564" lon="3.71179">
        <ele>72</ele>
        <time>2017-04-09T10:11:44+02:00</time>
      </trkpt>
      <trkpt lat="50.34544" lon="3.71156">
        <ele>68</ele>
        <time>2020-11-08T11:40:33+01:00</time>
      </trkpt>
      <trkpt lat="50.34504" lon="3.71141">
        <ele>60</ele>
        <time>2017-04-09T10:12:00+02:00</time>
      </trkpt>
      <trkpt lat="50.34517" lon="3.71113">
        <ele>60</ele>
        <time>2020-11-08T11:40:43+01:00</time>
      </trkpt>
      <trkpt lat="50.34523" lon="3.71088">
        <ele>59</ele>
        <time>2020-11-08T11:40:48+01:00</time>
      </trkpt>
      <trkpt lat="50.34534" lon="3.71055">
        <ele>60</ele>
        <time>2020-11-08T11:40:53+01:00</time>
      </trkpt>
      <trkpt lat="50.34534" lon="3.71026">
        <ele>60</ele>
        <time>2017-04-09T10:14:47+02:00</time>
      </trkpt>
      <trkpt lat="50.34546" lon="3.71013">
        <ele>61</ele>
        <time>2020-11-08T11:41:03+01:00</time>
      </trkpt>
      <trkpt lat="50.3456" lon="3.70999">
        <ele>63</ele>
        <time>2020-11-08T11:41:08+01:00</time>
      </trkpt>
      <trkpt lat="50.34564" lon="3.70962">
        <ele>63</ele>
        <time>2017-04-09T10:15:27+02:00</time>
      </trkpt>
      <trkpt lat="50.34566" lon="3.70927">
        <ele>63</ele>
        <time>2017-04-09T10:15:49+02:00</time>
      </trkpt>
      <trkpt lat="50.34575" lon="3.70898">
        <ele>64</ele>
        <time>2017-04-09T10:16:02+02:00</time>
      </trkpt>
      <trkpt lat="50.34615" lon="3.70874">
        <ele>67</ele>
        <time>2020-11-08T11:41:28+01:00</time>
      </trkpt>
      <trkpt lat="50.34694" lon="3.70868">
        <ele>71</ele>
        <time>2017-04-09T10:19:41+02:00</time>
      </trkpt>
      <trkpt lat="50.34775" lon="3.70838">
        <ele>70</ele>
        <time>2020-11-08T11:41:38+01:00</time>
      </trkpt>
      <trkpt lat="50.34886" lon="3.70658">
        <ele>61</ele>
        <time>2017-04-09T10:22:31+02:00</time>
      </trkpt>
      <trkpt lat="50.34968" lon="3.70529">
        <ele>59</ele>
        <time>2017-04-09T10:23:22+02:00</time>
      </trkpt>
      <trkpt lat="50.34974" lon="3.70503">
        <ele>58</ele>
        <time>2020-11-08T11:41:53+01:00</time>
      </trkpt>
      <trkpt lat="50.34973" lon="3.7048">
        <ele>58</ele>
        <time>2020-11-08T11:41:58+01:00</time>
      </trkpt>
      <trkpt lat="50.34966" lon="3.70461">
        <ele>58</ele>
        <time>2020-11-08T11:42:03+01:00</time>
      </trkpt>
      <trkpt lat="50.3495" lon="3.70442">
        <ele>59</ele>
        <time>2017-04-09T10:24:43+02:00</time>
      </trkpt>
      <trkpt lat="50.34945" lon="3.70407">
        <ele>61</ele>
        <time>2017-04-09T10:24:58+02:00</time>
      </trkpt>
      <trkpt lat="50.3494" lon="3.70374">
        <ele>63</ele>
        <time>2017-04-09T10:25:18+02:00</time>
      </trkpt>
      <trkpt lat="50.34933" lon="3.70343">
        <ele>66</ele>
        <time>2020-11-08T11:42:23+01:00</time>
      </trkpt>
      <trkpt lat="50.3492" lon="3.70309">
        <ele>68</ele>
        <time>2017-04-09T10:25:55+02:00</time>
      </trkpt>
      <trkpt lat="50.34907" lon="3.70276">
        <ele>69</ele>
        <time>2017-04-09T10:26:12+02:00</time>
      </trkpt>
      <trkpt lat="50.34896" lon="3.70255">
        <ele>70</ele>
        <time>2017-04-09T10:26:32+02:00</time>
      </trkpt>
      <trkpt lat="50.34901" lon="3.70154">
        <ele>65</ele>
        <time>2017-04-09T10:27:57+02:00</time>
      </trkpt>
      <trkpt lat="50.349" lon="3.70081">
        <ele>65</ele>
        <time>2017-04-09T10:28:26+02:00</time>
      </trkpt>
      <trkpt lat="50.34896" lon="3.70044">
        <ele>67</ele>
        <time>2017-04-09T10:28:43+02:00</time>
      </trkpt>
      <trkpt lat="50.34896" lon="3.70008">
        <ele>68</ele>
        <time>2017-04-09T10:29:04+02:00</time>
      </trkpt>
      <trkpt lat="50.34903" lon="3.69937">
        <ele>72</ele>
        <time>2017-04-09T10:29:41+02:00</time>
      </trkpt>
      <trkpt lat="50.34906" lon="3.69901">
        <ele>75</ele>
        <time>2017-04-09T10:30:02+02:00</time>
      </trkpt>
      <trkpt lat="50.34914" lon="3.69866">
        <ele>77</ele>
        <time>2017-04-09T10:30:23+02:00</time>
      </trkpt>
      <trkpt lat="50.34912" lon="3.69829">
        <ele>79</ele>
        <time>2017-04-09T10:30:44+02:00</time>
      </trkpt>
      <trkpt lat="50.3491" lon="3.69794">
        <ele>81</ele>
        <time>2017-04-09T10:31:03+02:00</time>
      </trkpt>
      <trkpt lat="50.34905" lon="3.69758">
        <ele>82</ele>
        <time>2017-04-09T10:31:21+02:00</time>
      </trkpt>
      <trkpt lat="50.34898" lon="3.69723">
        <ele>83</ele>
        <time>2017-04-09T10:31:37+02:00</time>
      </trkpt>
      <trkpt lat="50.34892" lon="3.69688">
        <ele>83</ele>
        <time>2017-04-09T10:31:56+02:00</time>
      </trkpt>
      <trkpt lat="50.34888" lon="3.69652">
        <ele>83</ele>
        <time>2017-04-09T10:32:12+02:00</time>
      </trkpt>
      <trkpt lat="50.34883" lon="3.69617">
        <ele>83</ele>
        <time>2017-04-09T10:32:27+02:00</time>
      </trkpt>
      <trkpt lat="50.3488" lon="3.69581">
        <ele>83</ele>
        <time>2017-04-09T10:32:44+02:00</time>
      </trkpt>
      <trkpt lat="50.34883" lon="3.69546">
        <ele>83</ele>
        <time>2017-04-09T10:33:01+02:00</time>
      </trkpt>
      <trkpt lat="50.34884" lon="3.69509">
        <ele>82</ele>
        <time>2017-04-09T10:33:20+02:00</time>
      </trkpt>
      <trkpt lat="50.34881" lon="3.69472">
        <ele>82</ele>
        <time>2017-04-09T10:33:36+02:00</time>
      </trkpt>
      <trkpt lat="50.3488" lon="3.69436">
        <ele>82</ele>
        <time>2017-04-09T10:33:52+02:00</time>
      </trkpt>
      <trkpt lat="50.3488" lon="3.69399">
        <ele>81</ele>
        <time>2017-04-09T10:34:10+02:00</time>
      </trkpt>
      <trkpt lat="50.34878" lon="3.69364">
        <ele>81</ele>
        <time>2017-04-09T10:34:29+02:00</time>
      </trkpt>
      <trkpt lat="50.34876" lon="3.69328">
        <ele>80</ele>
        <time>2017-04-09T10:34:43+02:00</time>
      </trkpt>
      <trkpt lat="50.34876" lon="3.69299">
        <ele>80</ele>
        <time>2017-04-09T10:35:07+02:00</time>
      </trkpt>
      <trkpt lat="50.34989" lon="3.69256">
        <ele>78</ele>
        <time>2017-04-09T10:35:24+02:00</time>
      </trkpt>
      <trkpt lat="50.34988" lon="3.69188">
        <ele>77</ele>
        <time>2017-04-09T10:35:39+02:00</time>
      </trkpt>
      <trkpt lat="50.35004" lon="3.69095">
        <ele>72</ele>
        <time>2017-04-09T10:35:57+02:00</time>
      </trkpt>
    </trkseg>
  </trk>
</gpx>